Time;durP1;ratioP1;P1;durP2;ratioP2;P2;SDS_P1;SDS_P2;PMS_P1;PMS_P2;Temp;Humidity;BMP_temperature;BMP_pressure;BME280_temperature;BME280_humidity;BME280_pressure;Samples;Min_cycle;Max_cycle;Signal;HPM_P1;HPM_P2
2022/11/16 06:44:13;;;;;;;12.95;9.05;;;11.30;72.40;;;;;;4915958;29;20070;-55
2022/11/16 06:46:39;;;;;;;12.30;8.98;;;11.30;72.50;;;;;;4921369;29;20016;-55
2022/11/16 06:49:04;;;;;;;14.30;10.20;;;11.30;72.60;;;;;;4928193;29;20119;-56
2022/11/16 06:51:30;;;;;;;14.45;9.77;;;11.30;72.60;;;;;;4930069;29;20025;-56
2022/11/16 06:53:56;;;;;;;16.15;10.45;;;11.30;72.50;;;;;;4925704;29;20039;-56
2022/11/16 06:56:21;;;;;;;15.85;10.95;;;11.40;72.60;;;;;;4930402;29;20494;-56
2022/11/16 06:58:47;;;;;;;14.38;10.55;;;11.40;72.50;;;;;;4924963;29;20066;-55
2022/11/16 07:01:12;;;;;;;14.90;11.10;;;11.40;72.30;;;;;;4935492;29;20031;-56
2022/11/16 07:03:38;;;;;;;19.00;10.50;;;11.40;72.30;;;;;;4934125;29;20051;-56
2022/11/16 07:06:09;;;;;;;14.43;10.55;;;11.50;72.30;;;;;;4929944;29;20066;-57
2022/11/16 07:08:35;;;;;;;16.27;12.18;;;11.50;72.20;;;;;;4936796;29;20051;-57
2022/11/16 07:11:05;;;;;;;14.60;10.35;;;11.50;72.10;;;;;;4931860;29;20507;-55
2022/11/16 07:13:35;;;;;;;13.90;9.32;;;11.50;72.30;;;;;;4924522;29;20058;-56
2022/11/16 07:16:03;;;;;;;13.27;9.38;;;11.50;72.30;;;;;;4927134;29;20032;-56
2022/11/16 07:18:32;;;;;;;12.73;9.70;;;11.40;72.20;;;;;;4925780;29;20032;-55
2022/11/16 07:20:57;;;;;;;14.48;10.00;;;11.50;72.30;;;;;;4908798;29;20232;-55
2022/11/16 07:23:23;;;;;;;14.88;10.38;;;11.50;72.30;;;;;;4928646;29;20039;-56
2022/11/16 07:25:49;;;;;;;16.60;11.32;;;11.50;72.30;;;;;;4924128;29;20038;-57
2022/11/16 07:28:14;;;;;;;14.70;10.73;;;11.50;72.30;;;;;;4919537;29;20691;-55
2022/11/16 07:30:40;;;;;;;15.10;10.32;;;11.60;72.10;;;;;;4918183;29;20031;-56
2022/11/16 07:33:06;;;;;;;14.48;10.07;;;11.60;72.20;;;;;;4924947;29;20032;-55
2022/11/16 07:35:31;;;;;;;16.65;10.48;;;11.60;72.10;;;;;;4929735;29;20046;-55
2022/11/16 07:37:57;;;;;;;14.70;9.48;;;11.60;72.00;;;;;;4925110;29;20024;-57
2022/11/16 07:40:23;;;;;;;14.15;9.43;;;11.70;72.00;;;;;;4928448;29;20176;-55
2022/11/16 07:42:48;;;;;;;14.50;9.60;;;11.70;72.00;;;;;;4924710;29;20043;-55
2022/11/16 07:45:14;;;;;;;17.23;11.57;;;11.70;71.90;;;;;;4925996;29;20036;-57
2022/11/16 07:47:40;;;;;;;16.23;10.82;;;11.70;71.90;;;;;;4919627;29;20032;-56
2022/11/16 07:50:06;;;;;;;15.27;11.50;;;11.70;71.80;;;;;;4917421;29;20439;-57
2022/11/16 07:52:31;;;;;;;14.70;10.05;;;11.70;71.70;;;;;;4909912;29;20098;-57
2022/11/16 07:54:57;;;;;;;16.25;10.10;;;11.80;71.70;;;;;;4916646;29;20036;-57
2022/11/16 07:57:23;;;;;;;13.15;10.02;;;11.80;71.60;;;;;;4927004;29;20034;-57
2022/11/16 07:59:48;;;;;;;16.55;10.70;;;11.80;71.70;;;;;;4929710;29;20035;-58
2022/11/16 08:02:14;;;;;;;13.27;9.25;;;11.80;71.60;;;;;;4919191;29;20063;-57
2022/11/16 08:04:40;;;;;;;13.73;10.32;;;11.80;71.60;;;;;;4919885;29;20031;-58
2022/11/16 08:07:05;;;;;;;16.17;11.63;;;11.80;71.60;;;;;;4926585;29;20032;-58
2022/11/16 08:09:31;;;;;;;16.38;11.18;;;11.80;71.50;;;;;;4936317;29;20083;-57
2022/11/16 08:11:56;;;;;;;13.68;10.15;;;11.80;71.50;;;;;;4927820;29;20064;-57
2022/11/16 08:14:22;;;;;;;16.38;10.27;;;11.80;71.60;;;;;;4924412;29;20040;-57
2022/11/16 08:16:48;;;;;;;14.15;9.50;;;11.80;71.50;;;;;;4921399;29;20032;-58
2022/11/16 08:19:13;;;;;;;14.23;10.50;;;11.80;71.60;;;;;;4922977;29;20546;-58
2022/11/16 08:21:39;;;;;;;13.38;9.18;;;11.80;71.70;;;;;;4924285;29;20054;-57
2022/11/16 08:24:05;;;;;;;13.68;9.52;;;11.70;71.60;;;;;;4923120;29;20035;-57
2022/11/16 08:26:30;;;;;;;12.93;8.85;;;11.80;71.60;;;;;;4918568;29;20059;-58
2022/11/16 08:28:56;;;;;;;12.32;8.88;;;11.80;71.60;;;;;;4920976;29;21194;-58
2022/11/16 08:31:25;;;;;;;11.18;8.35;;;11.80;71.70;;;;;;4911801;29;20043;-58
2022/11/16 08:33:51;;;;;;;12.02;8.80;;;11.80;71.60;;;;;;4913441;29;20044;-58
2022/11/16 08:36:17;;;;;;;11.50;8.52;;;11.80;71.50;;;;;;4913643;29;20043;-57
2022/11/16 08:38:44;;;;;;;12.32;8.15;;;11.80;71.50;;;;;;4914043;29;20123;-57
2022/11/16 08:41:10;;;;;;;13.85;9.07;;;11.80;71.50;;;;;;4917094;29;20368;-58
2022/11/16 08:43:38;;;;;;;11.35;8.02;;;11.80;71.40;;;;;;4912377;29;20051;-59
2022/11/16 08:46:04;;;;;;;10.27;7.75;;;11.80;71.40;;;;;;4913736;29;20159;-58
2022/11/16 08:48:30;;;;;;;13.50;8.65;;;11.80;71.50;;;;;;4913714;29;20633;-59
2022/11/16 08:51:04;;;;;;;14.85;10.57;;;11.80;71.50;;;;;;4911034;29;20090;-57
2022/11/16 08:53:30;;;;;;;12.30;9.10;;;11.80;71.50;;;;;;4912651;29;20154;-58
2022/11/16 08:56:01;;;;;;;11.27;7.85;;;11.80;71.40;;;;;;4913890;29;20059;-59
2022/11/16 08:58:27;;;;;;;;;;;11.80;71.50;;;;;;4903850;29;20090;-58
2022/11/16 09:00:52;;;;;;;10.60;7.85;;;11.70;71.40;;;;;;4907389;29;19941;-57
2022/11/16 09:03:18;;;;;;;11.05;7.90;;;11.70;71.70;;;;;;4903294;29;20148;-60
2022/11/16 09:05:45;;;;;;;11.48;8.30;;;11.70;71.90;;;;;;4904510;29;20046;-57
2022/11/16 09:08:11;;;;;;;10.35;7.35;;;11.70;72.60;;;;;;4906025;29;20043;-59
2022/11/16 09:10:37;;;;;;;11.02;6.80;;;11.70;72.10;;;;;;4916665;29;20035;-60
2022/11/16 09:13:02;;;;;;;11.15;7.65;;;11.70;72.20;;;;;;4912703;29;20330;-58
2022/11/16 09:15:28;;;;;;;10.63;7.68;;;11.70;72.10;;;;;;4906435;29;20118;-58
2022/11/16 09:17:54;;;;;;;11.30;8.07;;;11.70;72.10;;;;;;4916490;29;20042;-58
2022/11/16 09:20:20;;;;;;;11.20;8.00;;;11.70;72.10;;;;;;4928057;29;20038;-58
2022/11/16 09:22:46;;;;;;;10.85;7.32;;;11.80;72.00;;;;;;4912912;29;20090;-55
2022/11/16 09:25:11;;;;;;;10.85;7.30;;;11.80;71.90;;;;;;4913135;29;20463;-58
2022/11/16 09:27:37;;;;;;;12.07;7.45;;;11.80;71.90;;;;;;4902725;29;22240;-60
2022/11/16 09:30:03;;;;;;;12.10;7.88;;;11.80;71.80;;;;;;4913374;29;20027;-57
2022/11/16 09:32:29;;;;;;;10.63;7.18;;;11.80;71.70;;;;;;4915004;29;20028;-58
2022/11/16 09:34:55;;;;;;;9.85;7.00;;;11.80;71.70;;;;;;4905217;29;20081;-58
2022/11/16 09:37:20;;;;;;;9.20;6.57;;;11.90;71.60;;;;;;4910257;29;20673;-59
2022/11/16 09:39:46;;;;;;;8.02;6.07;;;11.90;71.60;;;;;;4908877;29;20036;-59
2022/11/16 09:42:27;;;;;;;8.60;5.78;;;11.90;71.60;;;;;;4912429;29;20080;-59
2022/11/16 09:45:03;;;;;;;9.43;6.72;;;11.90;71.60;;;;;;4914862;29;20443;-59
2022/11/16 09:47:42;;;;;;;8.45;5.97;;;12.00;71.60;;;;;;4916205;29;20038;-58
2022/11/16 09:50:21;;;;;;;9.35;7.22;;;12.00;71.60;;;;;;4911426;29;20083;-57
2022/11/16 09:52:48;;;;;;;8.80;5.63;;;12.00;71.50;;;;;;4916442;29;20051;-56
2022/11/16 09:55:35;;;;;;;8.50;6.15;;;12.00;71.60;;;;;;4927684;29;20086;-58
2022/11/16 09:58:06;;;;;;;9.10;6.18;;;12.00;71.50;;;;;;4909256;29;20111;-57
2022/11/16 10:00:34;;;;;;;9.10;6.47;;;12.00;71.50;;;;;;4910512;29;21032;-58
2022/11/16 12:05:26;;;;;;;9.27;5.78;;;10.20;72.70;;;;;;5042516;27;20486;-59
2022/11/16 12:08:16;;;;;;;11.93;7.35;;;10.20;72.20;;;;;;5036668;28;20118;-58
2022/11/16 12:10:47;;;;;;;14.35;8.77;;;10.20;73.30;;;;;;5041080;28;20057;-59
2022/11/16 12:13:46;;;;;;;14.40;9.75;;;10.30;74.20;;;;;;5042819;28;20028;-58
2022/11/16 12:16:38;;;;;;;19.00;12.25;;;10.30;74.90;;;;;;5041742;28;20021;-58
2022/11/16 12:19:35;;;;;;;16.20;10.73;;;10.40;75.50;;;;;;5046544;28;20643;-58
2022/11/16 12:22:29;;;;;;;15.15;10.32;;;10.50;76.00;;;;;;5043089;28;20029;-58
2022/11/16 12:25:34;;;;;;;13.40;9.30;;;10.50;76.30;;;;;;5032320;28;20041;-59
2022/11/16 12:28:15;;;;;;;13.15;8.75;;;10.60;76.30;;;;;;4993786;28;20039;-59
2022/11/16 12:31:32;;;;;;;15.23;10.67;;;10.70;76.60;;;;;;5034507;28;20484;-60
2022/11/16 12:34:00;;;;;;;15.23;10.07;;;10.80;76.50;;;;;;5010882;28;20033;-58
2022/11/16 12:36:39;;;;;;;16.58;9.70;;;10.80;76.60;;;;;;5034944;28;20030;-58
2022/11/16 12:39:24;;;;;;;18.63;12.07;;;10.90;76.70;;;;;;5038288;28;20033;-59
2022/11/16 12:42:05;;;;;;;18.25;12.77;;;10.90;76.70;;;;;;5040424;28;20040;-58
2022/11/16 12:44:50;;;;;;;18.80;12.17;;;10.90;76.70;;;;;;5037685;28;20040;-59
2022/11/16 12:47:18;;;;;;;15.70;10.20;;;10.90;76.70;;;;;;5035564;28;20032;-58
2022/11/16 12:49:53;;;;;;;18.30;10.77;;;10.90;76.70;;;;;;5044919;28;20450;-57
2022/11/16 12:52:43;;;;;;;13.43;9.07;;;10.90;76.70;;;;;;5036737;28;20057;-59
2022/11/16 12:55:23;;;;;;;14.68;9.27;;;10.90;76.70;;;;;;5033370;28;20053;-57
2022/11/16 12:58:23;;;;;;;15.38;9.95;;;11.00;76.80;;;;;;5039081;28;20033;-57
2022/11/16 13:01:23;;;;;;;16.27;9.38;;;11.00;76.70;;;;;;5033499;28;20034;-58
2022/11/16 13:03:57;;;;;;;15.65;9.68;;;11.10;76.80;;;;;;5039963;28;20107;-58
2022/11/16 13:06:34;;;;;;;15.55;10.07;;;11.10;76.80;;;;;;5051601;28;20114;-58
2022/11/16 13:09:14;;;;;;;15.95;10.30;;;11.10;76.70;;;;;;5037597;28;20070;-58
2022/11/16 13:11:54;;;;;;;17.00;10.68;;;11.10;76.60;;;;;;5038075;28;20031;-60
2022/11/16 13:14:42;;;;;;;16.52;10.27;;;11.10;76.50;;;;;;5026794;28;20037;-57
2022/11/16 13:17:16;;;;;;;14.80;9.60;;;11.20;76.40;;;;;;5009523;28;21718;-59
2022/11/16 13:19:45;;;;;;;15.02;10.07;;;11.20;76.50;;;;;;5028589;28;20037;-60
2022/11/16 13:22:18;;;;;;;15.13;9.63;;;11.20;76.50;;;;;;5023723;28;20839;-59
2022/11/16 13:24:47;;;;;;;15.05;10.23;;;11.20;76.40;;;;;;5019700;28;20803;-60
2022/11/16 13:27:32;;;;;;;14.63;9.48;;;11.20;76.40;;;;;;5020462;28;20484;-58
2022/11/16 13:30:01;;;;;;;14.77;9.70;;;11.20;76.40;;;;;;5026313;28;20440;-60
2022/11/16 13:32:45;;;;;;;11.57;8.57;;;11.20;76.40;;;;;;5017343;28;20637;-59
2022/11/16 13:35:15;;;;;;;12.57;9.32;;;11.20;76.40;;;;;;5024498;28;20037;-60
2022/11/16 13:37:41;;;;;;;11.18;7.63;;;11.20;76.40;;;;;;5020277;28;21171;-60
2022/11/16 13:40:20;;;;;;;10.75;7.43;;;11.20;76.40;;;;;;5027054;28;20029;-58
2022/11/16 13:43:06;;;;;;;10.30;7.60;;;11.20;76.40;;;;;;5018758;28;20061;-57
2022/11/16 13:45:52;;;;;;;11.93;7.70;;;11.20;76.40;;;;;;5021627;28;20040;-57
2022/11/16 13:48:23;;;;;;;12.13;8.50;;;11.20;76.50;;;;;;5030081;28;20108;-58
2022/11/16 13:50:54;;;;;;;11.85;8.15;;;11.20;76.50;;;;;;5021748;28;20139;-59
2022/11/16 13:53:23;;;;;;;10.05;6.95;;;11.20;76.60;;;;;;5015262;28;20447;-59
2022/11/16 13:56:01;;;;;;;12.32;7.78;;;11.20;76.70;;;;;;5010031;28;20029;-59
2022/11/16 13:58:29;;;;;;;13.48;8.93;;;11.10;76.70;;;;;;5003780;28;20034;-59
2022/11/16 14:01:07;;;;;;;12.73;8.90;;;11.10;76.90;;;;;;5008403;28;20033;-58
2022/11/16 14:03:50;;;;;;;12.15;9.05;;;11.10;77.00;;;;;;5023778;28;20178;-58
2022/11/16 14:06:19;;;;;;;14.98;8.90;;;11.10;76.90;;;;;;5022306;28;20056;-59
2022/11/16 14:08:52;;;;;;;16.98;10.90;;;11.10;77.10;;;;;;5033229;28;20025;-59
2022/11/16 14:11:38;;;;;;;12.45;8.50;;;11.10;77.00;;;;;;5015588;28;20047;-60
2022/11/16 14:14:12;;;;;;;13.00;9.00;;;11.00;77.20;;;;;;5021326;28;20036;-59
2022/11/16 14:16:42;;;;;;;13.98;9.10;;;11.00;77.30;;;;;;5026196;28;20036;-58
2022/11/16 14:19:43;;;;;;;13.27;9.45;;;11.00;77.50;;;;;;5017005;28;20029;-57
2022/11/16 14:22:34;;;;;;;12.15;8.07;;;11.00;77.50;;;;;;5019046;28;20293;-58
2022/11/16 14:25:21;;;;;;;12.68;8.05;;;11.00;77.60;;;;;;5014462;28;20483;-58
2022/11/16 14:28:19;;;;;;;12.50;9.10;;;11.00;77.60;;;;;;5014949;28;21033;-58
2022/11/16 14:30:55;;;;;;;11.27;7.40;;;11.00;77.50;;;;;;5007917;28;20506;-57
2022/11/16 14:33:32;;;;;;;12.45;9.02;;;11.00;77.60;;;;;;5014330;28;20029;-55
2022/11/16 14:35:59;;;;;;;12.25;8.40;;;11.00;77.60;;;;;;5026418;28;20136;-58
2022/11/16 14:38:32;;;;;;;11.27;8.13;;;11.00;77.70;;;;;;5027596;28;20031;-57
2022/11/16 14:41:01;;;;;;;12.68;7.97;;;11.00;77.60;;;;;;5021495;28;20088;-57
2022/11/16 14:43:39;;;;;;;15.32;9.23;;;11.00;77.80;;;;;;5021543;28;20106;-58
2022/11/16 14:46:09;;;;;;;12.35;8.98;;;11.00;77.80;;;;;;5013776;28;20032;-58
2022/11/16 14:48:44;;;;;;;14.02;9.50;;;11.10;77.80;;;;;;5023743;28;20032;-58
2022/11/16 14:51:12;;;;;;;13.77;8.85;;;11.10;77.90;;;;;;5013855;28;20103;-54
2022/11/16 14:53:47;;;;;;;12.93;8.98;;;11.10;77.90;;;;;;5017109;28;20144;-58
2022/11/16 14:56:15;;;;;;;13.07;8.07;;;11.10;77.90;;;;;;5016132;28;20055;-57
2022/11/16 14:59:00;;;;;;;13.35;8.20;;;11.10;77.90;;;;;;5007939;28;20633;-57
2022/11/16 15:01:28;;;;;;;14.48;9.20;;;11.10;77.80;;;;;;5005957;28;20750;-57
2022/11/16 15:04:16;;;;;;;15.90;9.25;;;11.20;77.90;;;;;;5014415;28;20040;-58
2022/11/16 15:06:49;;;;;;;13.80;8.48;;;11.20;77.80;;;;;;5016076;28;20017;-58
2022/11/16 15:09:21;;;;;;;13.00;8.23;;;11.20;77.80;;;;;;5025013;28;20025;-58
2022/11/16 15:14:43;;;;;;;12.30;7.88;;;11.10;77.80;;;;;;5034833;28;20624;-59
2022/11/16 15:17:15;;;;;;;10.57;7.45;;;11.10;77.80;;;;;;5032175;28;20483;-57
2022/11/16 15:19:41;;;;;;;12.52;8.38;;;11.10;77.80;;;;;;5023718;28;20045;-56
2022/11/16 15:22:16;;;;;;;13.95;8.88;;;11.00;77.70;;;;;;5030107;28;20411;-57
2022/11/16 15:24:41;;;;;;;12.32;7.75;;;11.00;77.80;;;;;;5028979;28;20030;-59
2022/11/16 15:27:33;;;;;;;12.20;8.30;;;11.00;78.00;;;;;;5023649;28;20071;-58
2022/11/16 15:30:14;;;;;;;12.40;7.43;;;10.90;78.00;;;;;;5028220;28;20079;-58
2022/11/16 15:32:45;;;;;;;11.88;7.97;;;10.90;78.00;;;;;;5025459;28;20024;-58
2022/11/16 15:35:27;;;;;;;11.00;6.93;;;10.90;78.20;;;;;;5025403;28;20030;-56
2022/11/16 15:38:23;;;;;;;11.45;7.57;;;10.90;78.20;;;;;;5024448;28;20119;-57
2022/11/16 15:40:59;;;;;;;10.27;7.20;;;10.90;78.30;;;;;;5020294;28;20045;-58
2022/11/16 15:43:38;;;;;;;10.57;6.82;;;10.80;78.40;;;;;;5029036;28;20311;-58
2022/11/16 15:46:05;;;;;;;11.57;7.47;;;10.80;78.50;;;;;;5024766;28;20025;-56
2022/11/16 15:48:35;;;;;;;12.90;8.50;;;10.80;78.50;;;;;;5021943;28;20522;-57
2022/11/16 15:51:23;;;;;;;12.15;8.30;;;10.80;78.50;;;;;;5028787;28;20013;-57
2022/11/16 15:54:20;;;;;;;13.73;8.35;;;10.80;78.50;;;;;;5028047;28;20029;-58
2022/11/16 15:56:46;;;;;;;11.88;7.65;;;10.80;78.60;;;;;;5012378;28;20057;-57
2022/11/16 15:59:22;;;;;;;11.40;8.05;;;10.80;78.90;;;;;;5025400;28;20033;-57
2022/11/16 18:04:54;;;;;;;10.10;6.30;;;9.50;77.60;;;;;;5076770;27;20869;-57
2022/11/16 18:07:20;;;;;;;11.18;7.43;;;9.50;76.90;;;;;;5066816;28;20055;-59
2022/11/16 18:09:45;;;;;;;12.18;6.50;;;9.50;78.00;;;;;;5076372;28;20034;-59
2022/11/16 18:12:11;;;;;;;11.50;7.07;;;9.60;79.00;;;;;;5059521;28;20471;-58
2022/11/16 18:14:37;;;;;;;12.00;6.78;;;9.60;79.70;;;;;;5069813;28;20032;-59
2022/11/16 18:17:02;;;;;;;13.48;7.78;;;9.70;80.30;;;;;;5074249;28;20047;-59
2022/11/16 18:19:28;;;;;;;13.07;7.47;;;9.80;80.80;;;;;;5081094;28;20037;-56
2022/11/16 18:21:53;;;;;;;13.35;8.15;;;9.80;81.00;;;;;;5071543;28;20029;-59
2022/11/16 18:24:19;;;;;;;12.55;8.60;;;9.90;81.20;;;;;;5073839;28;20128;-58
2022/11/16 18:26:45;;;;;;;13.60;9.13;;;10.00;81.30;;;;;;5078325;28;20032;-59
2022/11/16 18:29:14;;;;;;;14.32;8.55;;;10.10;81.40;;;;;;5079258;28;20033;-59
2022/11/16 18:31:39;;;;;;;10.95;7.15;;;10.10;81.50;;;;;;5069391;28;20434;-57
2022/11/16 18:34:05;;;;;;;9.93;6.47;;;10.10;81.50;;;;;;5068376;28;20044;-57
2022/11/16 18:36:31;;;;;;;12.25;7.28;;;10.20;81.50;;;;;;5068956;28;20029;-59
2022/11/16 18:38:56;;;;;;;12.27;7.22;;;10.30;81.50;;;;;;5067358;28;20396;-57
2022/11/16 18:41:25;;;;;;;10.52;6.97;;;10.20;81.30;;;;;;5066616;28;20305;-56
2022/11/16 18:43:56;;;;;;;11.00;7.22;;;10.30;81.30;;;;;;5076254;28;20074;-58
2022/11/16 18:46:27;;;;;;;11.02;7.55;;;10.30;81.20;;;;;;5066478;28;20166;-58
2022/11/16 18:48:53;;;;;;;9.65;6.43;;;10.40;81.20;;;;;;5067110;28;20032;-58
2022/11/16 18:51:21;;;;;;;9.70;6.40;;;10.40;81.10;;;;;;5066123;28;20061;-58
2022/11/16 18:53:47;;;;;;;10.30;6.07;;;10.40;81.20;;;;;;5067670;28;20032;-57
2022/11/16 18:56:13;;;;;;;10.25;6.55;;;10.40;81.20;;;;;;5066981;28;20041;-57
2022/11/16 18:58:40;;;;;;;10.57;6.80;;;10.40;81.10;;;;;;5066833;28;20017;-58
2022/11/16 19:01:09;;;;;;;8.50;6.00;;;10.50;81.00;;;;;;5069133;28;20021;-59
2022/11/16 19:03:34;;;;;;;7.03;5.20;;;10.40;81.00;;;;;;5068680;28;20056;-57
2022/11/16 19:06:08;;;;;;;9.85;5.93;;;10.40;81.10;;;;;;5069041;28;20024;-58
2022/11/16 19:08:36;;;;;;;9.63;5.82;;;10.40;81.10;;;;;;5069201;28;20029;-57
2022/11/16 19:11:07;;;;;;;9.32;6.35;;;10.40;81.20;;;;;;5068000;28;20028;-57
2022/11/16 19:13:32;;;;;;;10.25;7.57;;;10.40;81.10;;;;;;5078528;28;20036;-57
2022/11/16 19:15:58;;;;;;;9.48;7.07;;;10.50;81.10;;;;;;5063597;28;20033;-56
2022/11/16 19:18:24;;;;;;;11.07;7.80;;;10.50;81.10;;;;;;5055176;28;20029;-59
2022/11/16 19:20:50;;;;;;;12.23;7.25;;;10.40;81.00;;;;;;5055558;28;20036;-59
2022/11/16 19:23:15;;;;;;;11.85;6.55;;;10.40;81.10;;;;;;5054254;28;20032;-58
2022/11/16 19:25:41;;;;;;;11.18;7.18;;;10.40;81.20;;;;;;5055464;28;20032;-59
2022/11/16 19:28:07;;;;;;;9.38;6.32;;;10.40;81.20;;;;;;5054450;28;20051;-57
2022/11/16 19:30:32;;;;;;;11.70;7.50;;;10.40;81.10;;;;;;5058024;28;20483;-58
2022/11/16 19:32:59;;;;;;;9.65;6.95;;;10.40;80.90;;;;;;5054796;28;20035;-59
2022/11/16 19:35:25;;;;;;;10.38;7.38;;;10.30;81.00;;;;;;5054676;28;20037;-58
2022/11/16 19:37:51;;;;;;;10.25;6.60;;;10.30;81.10;;;;;;5053930;28;20052;-58
2022/11/16 19:40:16;;;;;;;10.02;5.80;;;10.30;81.20;;;;;;5047418;28;20515;-59
2022/11/16 19:42:42;;;;;;;8.18;6.53;;;10.30;81.30;;;;;;5058338;28;20060;-59
2022/11/16 19:45:09;;;;;;;10.65;6.45;;;10.30;81.30;;;;;;5055177;28;20029;-59
2022/11/16 19:47:38;;;;;;;10.20;5.75;;;10.30;81.30;;;;;;5058199;28;20434;-57
2022/11/16 19:50:05;;;;;;;9.85;6.55;;;10.30;81.30;;;;;;5054802;28;20479;-59
2022/11/16 19:52:31;;;;;;;7.32;5.07;;;10.30;81.30;;;;;;5053963;28;20356;-59
2022/11/16 19:54:56;;;;;;;9.43;5.97;;;10.30;81.30;;;;;;5054511;28;20112;-57
2022/11/16 19:57:22;;;;;;;8.40;5.95;;;10.30;81.40;;;;;;5054753;28;20044;-59
2022/11/16 19:59:48;;;;;;;9.73;6.07;;;10.20;81.50;;;;;;5054720;28;20029;-59
2022/11/16 20:02:13;;;;;;;10.20;6.90;;;10.20;81.50;;;;;;5053672;28;20075;-58
2022/11/16 20:04:39;;;;;;;8.45;5.88;;;10.20;81.70;;;;;;5054273;28;20049;-59
2022/11/16 20:07:06;;;;;;;7.65;5.53;;;10.20;81.90;;;;;;5055024;28;20024;-58
2022/11/16 20:09:32;;;;;;;7.00;5.25;;;10.20;81.90;;;;;;5054770;28;20029;-58
2022/11/16 20:11:58;;;;;;;7.25;5.15;;;10.20;81.90;;;;;;5058158;28;20479;-57
2022/11/16 20:14:24;;;;;;;9.55;6.43;;;10.20;81.90;;;;;;5060231;28;20039;-59
2022/11/16 20:16:49;;;;;;;8.55;5.72;;;10.20;81.70;;;;;;5054915;28;20029;-59
2022/11/16 20:19:16;;;;;;;9.77;6.72;;;10.10;81.70;;;;;;5053876;28;20045;-59
2022/11/16 20:21:43;;;;;;;8.30;5.60;;;10.20;81.80;;;;;;5053699;28;20033;-59
2022/11/16 20:24:11;;;;;;;9.43;5.25;;;10.10;81.80;;;;;;5054201;28;20466;-58
2022/11/16 20:26:44;;;;;;;8.25;5.20;;;10.10;81.90;;;;;;5057565;28;20479;-58
2022/11/16 20:29:15;;;;;;;5.82;4.57;;;10.10;81.80;;;;;;5057716;28;20013;-58
2022/11/16 20:31:41;;;;;;;7.78;5.32;;;10.10;81.80;;;;;;5053803;28;20017;-59
2022/11/16 20:34:12;;;;;;;6.55;4.90;;;10.10;81.70;;;;;;5053560;28;20057;-56
2022/11/16 20:36:40;;;;;;;5.88;3.97;;;10.10;81.70;;;;;;5054724;28;20475;-59
2022/11/16 20:39:06;;;;;;;7.43;4.53;;;10.10;81.80;;;;;;5053155;28;20076;-58
2022/11/16 20:41:32;;;;;;;6.22;4.45;;;10.10;81.90;;;;;;5054995;28;20470;-56
2022/11/16 20:43:59;;;;;;;6.18;4.25;;;10.10;81.80;;;;;;5054482;28;20025;-59
2022/11/16 20:46:27;;;;;;;6.53;4.93;;;10.00;81.80;;;;;;5061622;28;20606;-58
2022/11/16 20:48:55;;;;;;;5.80;4.45;;;10.10;82.00;;;;;;5054924;28;20028;-59
2022/11/16 20:51:22;;;;;;;7.43;5.22;;;10.10;82.00;;;;;;5053294;28;20028;-59
2022/11/16 20:53:49;;;;;;;6.72;4.65;;;10.00;81.90;;;;;;5053998;28;20064;-59
2022/11/16 20:56:17;;;;;;;6.70;4.55;;;10.00;82.10;;;;;;5053082;28;20033;-58
2022/11/16 20:58:43;;;;;;;8.48;6.22;;;10.00;82.10;;;;;;5047772;28;20502;-59
2022/11/16 21:01:15;;;;;;;6.30;4.18;;;10.00;81.90;;;;;;5056003;28;20033;-58
2022/11/16 21:03:41;;;;;;;;;;;10.00;82.00;;;;;;5041776;28;20727;-58
2022/11/16 21:06:07;;;;;;;6.75;5.03;;;9.90;81.60;;;;;;5053565;28;19904;-58
2022/11/16 21:08:34;;;;;;;7.47;4.70;;;9.90;82.00;;;;;;5053607;28;20067;-58
2022/11/16 21:11:00;;;;;;;7.03;5.20;;;9.90;82.10;;;;;;5053242;28;20104;-56
2022/11/16 21:16:13;;;;;;;7.90;5.10;;;9.90;82.20;;;;;;5052641;28;20040;-59
2022/11/16 21:18:40;;;;;;;6.82;4.50;;;9.90;82.40;;;;;;5054280;28;20640;-59
2022/11/16 21:21:06;;;;;;;7.75;5.43;;;9.80;82.40;;;;;;5054543;28;20036;-58
2022/11/16 21:23:33;;;;;;;8.93;6.15;;;9.80;82.30;;;;;;5051647;28;20048;-59
2022/11/16 21:26:09;;;;;;;8.30;5.82;;;9.80;82.10;;;;;;5054855;28;20062;-57
2022/11/16 21:28:36;;;;;;;9.93;6.07;;;9.80;82.20;;;;;;5044857;28;20025;-58
2022/11/16 21:31:14;;;;;;;8.27;5.68;;;9.80;82.20;;;;;;5048534;28;20051;-57
2022/11/16 21:33:39;;;;;;;9.25;6.82;;;9.80;82.20;;;;;;5053299;28;20454;-58
2022/11/16 21:36:09;;;;;;;9.05;6.00;;;9.70;82.30;;;;;;5052709;28;20025;-58
2022/11/16 21:38:35;;;;;;;9.68;6.75;;;9.70;82.60;;;;;;5059549;28;20079;-58
2022/11/16 21:41:03;;;;;;;9.68;5.53;;;9.70;82.60;;;;;;5039404;28;20502;-58
2022/11/16 21:43:30;;;;;;;10.98;7.50;;;9.60;82.60;;;;;;5055493;28;20040;-59
2022/11/16 21:46:01;;;;;;;8.88;6.45;;;9.60;82.60;;;;;;5053130;28;20047;-58
2022/11/16 21:48:29;;;;;;;8.80;6.45;;;9.60;82.60;;;;;;5063943;28;20032;-58
2022/11/16 21:51:03;;;;;;;8.07;5.15;;;9.60;82.70;;;;;;5052219;28;20040;-59
2022/11/16 21:53:29;;;;;;;7.40;4.82;;;9.60;82.80;;;;;;5052646;28;20025;-58
2022/11/16 21:55:55;;;;;;;7.07;4.88;;;9.60;82.80;;;;;;5052633;28;20391;-58
2022/11/16 21:58:21;;;;;;;6.07;4.35;;;9.60;82.80;;;;;;5052336;28;20036;-58
2022/11/16 22:00:47;;;;;;;4.63;3.58;;;9.60;82.70;;;;;;5051233;28;20471;-59
2022/11/16 22:03:12;;;;;;;5.57;4.18;;;9.60;82.80;;;;;;5057265;28;20077;-58
2022/11/16 22:08:22;;;;;;;5.15;3.67;;;9.50;82.90;;;;;;5038767;28;20048;-58
2022/11/16 22:10:52;;;;;;;3.78;3.10;;;9.40;83.00;;;;;;5053247;28;20495;-57
2022/11/16 22:13:18;;;;;;;4.50;3.22;;;9.40;83.10;;;;;;5063324;28;20285;-57
2022/11/16 22:15:44;;;;;;;3.55;2.83;;;9.40;82.90;;;;;;5044388;28;20123;-56
2022/11/16 22:18:10;;;;;;;4.68;3.35;;;9.40;82.90;;;;;;5052579;28;20032;-58
2022/11/16 22:20:35;;;;;;;4.88;3.22;;;9.40;82.90;;;;;;5052379;28;20033;-58
2022/11/16 22:23:01;;;;;;;4.35;3.30;;;9.40;82.70;;;;;;5052089;28;20514;-56
2022/11/16 22:25:27;;;;;;;4.13;3.00;;;9.30;82.50;;;;;;5052072;28;20121;-59
2022/11/16 22:27:52;;;;;;;3.92;3.08;;;9.30;82.80;;;;;;5059265;28;20024;-59
2022/11/16 22:30:18;;;;;;;4.45;3.65;;;9.20;82.80;;;;;;5051935;28;20034;-58
2022/11/16 22:32:44;;;;;;;4.72;3.67;;;9.20;82.90;;;;;;5051623;28;20043;-58
2022/11/16 22:35:10;;;;;;;3.63;3.28;;;9.20;82.80;;;;;;5053497;28;20021;-59
2022/11/16 22:37:36;;;;;;;4.30;3.47;;;9.20;82.80;;;;;;5052631;28;20056;-57
2022/11/16 22:40:03;;;;;;;5.82;4.30;;;9.10;82.80;;;;;;5050046;28;20112;-58
2022/11/16 22:42:29;;;;;;;5.60;4.13;;;9.20;82.90;;;;;;5055078;28;20032;-58
2022/11/16 22:44:55;;;;;;;4.20;3.55;;;9.10;82.90;;;;;;5052092;28;20037;-59
2022/11/16 22:47:20;;;;;;;4.70;3.75;;;9.20;83.00;;;;;;5052240;28;20096;-59
2022/11/16 22:49:46;;;;;;;4.78;3.90;;;9.10;83.00;;;;;;5051074;28;20091;-58
2022/11/16 22:52:12;;;;;;;4.13;3.60;;;9.10;82.90;;;;;;5056068;28;20063;-59
2022/11/16 22:54:37;;;;;;;5.13;3.65;;;9.10;83.00;;;;;;5055601;28;20053;-56
2022/11/16 22:57:04;;;;;;;3.75;3.20;;;9.10;83.50;;;;;;5056145;28;20021;-57
2022/11/16 22:59:30;;;;;;;5.07;3.90;;;9.10;83.00;;;;;;5055832;28;20060;-57
2022/11/16 23:01:55;;;;;;;4.60;3.92;;;9.10;83.00;;;;;;5054171;28;20071;-58
2022/11/16 23:04:21;;;;;;;4.30;3.42;;;9.00;82.80;;;;;;5055016;28;20052;-58
2022/11/16 23:06:48;;;;;;;5.30;4.18;;;9.00;82.90;;;;;;5056980;28;20026;-58
2022/11/16 23:09:13;;;;;;;4.43;3.25;;;9.00;82.90;;;;;;5055826;28;20513;-59
2022/11/16 23:17:07;;;;;;;4.20;3.30;;;8.90;83.00;;;;;;5056153;28;20036;-57
2022/11/16 23:28:03;;;;;;;4.30;3.10;;;8.90;83.20;;;;;;5055434;28;20039;-59
2022/11/16 23:30:28;;;;;;;5.03;3.90;;;8.90;83.10;;;;;;5053005;28;20048;-58
2022/11/16 23:32:54;;;;;;;4.28;3.80;;;8.90;83.10;;;;;;5055448;28;20072;-56
2022/11/16 23:35:21;;;;;;;4.07;3.42;;;8.90;83.00;;;;;;5054658;28;20048;-58
2022/11/16 23:38:01;;;;;;;4.68;3.67;;;8.80;83.10;;;;;;5050392;28;20437;-58
2022/11/16 23:40:29;;;;;;;4.00;3.40;;;8.80;83.30;;;;;;5054914;28;20033;-57
2022/11/16 23:45:41;;;;;;;3.22;2.90;;;8.80;83.50;;;;;;5054258;28;20031;-59
2022/11/16 23:48:08;;;;;;;4.20;3.47;;;8.70;83.60;;;;;;5054926;28;20467;-57
2022/11/16 23:50:34;;;;;;;4.70;4.15;;;8.70;83.50;;;;;;5048555;28;20789;-58
2022/11/16 23:53:00;;;;;;;4.03;3.55;;;8.70;83.50;;;;;;5047234;28;20033;-56
2022/11/16 23:55:26;;;;;;;3.65;3.05;;;8.70;83.50;;;;;;5053873;28;20029;-58
2022/11/16 23:57:52;;;;;;;4.55;3.65;;;8.70;83.50;;;;;;5051439;28;20036;-57
